createdAt,value
2023-04-23T00:01:19.332Z,11.00
2023-04-23T00:03:46.928Z,9.45
2023-04-23T00:06:14.562Z,9.65
2023-04-23T00:08:42.328Z,9.18
2023-04-23T00:11:10.297Z,10.13
2023-04-23T00:13:37.872Z,9.82
2023-04-23T00:16:05.407Z,10.50
2023-04-23T00:18:32.702Z,8.07
2023-04-23T00:20:59.811Z,8.43
2023-04-23T00:23:26.839Z,7.32
2023-04-23T00:25:54.013Z,8.45
2023-04-23T00:28:22.346Z,7.25
2023-04-23T00:30:49.592Z,7.22
2023-04-23T00:33:17.196Z,6.55
2023-04-23T00:35:44.931Z,6.32
2023-04-23T00:38:12.132Z,9.52
2023-04-23T00:40:39.215Z,15.48
2023-04-23T00:43:07.458Z,19.15
2023-04-23T00:45:34.825Z,21.23
2023-04-23T00:48:03.124Z,25.45
2023-04-23T00:50:30.100Z,24.92
2023-04-23T00:52:57.153Z,23.70
2023-04-23T00:55:24.373Z,22.55
2023-04-23T00:57:52.433Z,20.67
2023-04-23T01:00:20.516Z,24.20
2023-04-23T01:05:18.295Z,31.35
2023-04-23T01:07:46.841Z,34.60
2023-04-23T01:10:14.442Z,34.45
2023-04-23T01:12:42.166Z,30.65
2023-04-23T01:15:10.048Z,32.17
2023-04-23T01:17:37.327Z,32.15
2023-04-23T01:20:06.745Z,33.85
2023-04-23T01:22:37.032Z,29.45
2023-04-23T01:25:05.032Z,26.30
2023-04-23T01:27:33.391Z,23.35
2023-04-23T01:30:03.841Z,20.50
2023-04-23T01:32:32.055Z,20.80
2023-04-23T01:35:00.050Z,20.05
2023-04-23T01:37:27.770Z,20.65
2023-04-23T01:39:54.904Z,18.88
2023-04-23T01:42:23.522Z,19.27
2023-04-23T01:44:53.724Z,16.88
2023-04-23T01:47:21.437Z,16.48
2023-04-23T01:49:48.590Z,15.60
2023-04-23T01:52:15.738Z,15.10
2023-04-23T01:54:42.932Z,10.10
2023-04-23T01:57:10.884Z,9.60
2023-04-23T01:59:38.696Z,7.88
2023-04-23T02:02:05.925Z,7.68
2023-04-23T02:04:34.285Z,8.27
2023-04-23T02:07:01.419Z,8.18
2023-04-23T02:09:28.388Z,7.72
2023-04-23T02:11:55.452Z,9.35
2023-04-23T02:14:22.498Z,8.93
2023-04-23T02:16:51.667Z,12.20
2023-04-23T02:19:18.825Z,14.57
2023-04-23T02:21:45.809Z,14.13
2023-04-23T02:24:12.902Z,16.02
2023-04-23T02:26:39.839Z,13.75
2023-04-23T02:29:06.795Z,13.68
2023-04-23T02:31:33.937Z,12.90
2023-04-23T02:34:01.356Z,11.77
2023-04-23T02:36:31.194Z,11.90
2023-04-23T02:38:58.166Z,11.18
2023-04-23T02:41:25.187Z,11.25
2023-04-23T02:43:52.388Z,12.82
2023-04-23T02:46:19.371Z,12.60
2023-04-23T02:48:46.871Z,10.77
2023-04-23T02:51:14.618Z,10.27
2023-04-23T02:53:41.760Z,10.70
2023-04-23T02:56:08.917Z,11.73
2023-04-23T02:58:36.237Z,10.80
2023-04-23T03:01:04.067Z,11.55
2023-04-23T03:03:32.603Z,12.30
2023-04-23T03:06:02.930Z,10.93
2023-04-23T03:08:30.020Z,11.88
2023-04-23T03:10:57.190Z,20.95
2023-04-23T03:13:25.212Z,26.67
2023-04-23T03:15:53.080Z,28.55
2023-04-23T03:18:20.801Z,29.55
2023-04-23T03:20:51.646Z,29.42
2023-04-23T03:23:18.998Z,28.55
2023-04-23T03:25:47.643Z,27.67
2023-04-23T03:28:14.666Z,29.48
2023-04-23T03:30:41.796Z,31.65
2023-04-23T03:33:09.656Z,37.17
2023-04-23T03:35:37.388Z,37.55
2023-04-23T03:38:08.813Z,38.42
2023-04-23T03:40:36.942Z,42.17
2023-04-23T03:43:06.502Z,41.00
2023-04-23T03:46:08.996Z,44.17
2023-04-23T03:48:39.927Z,42.92
2023-04-23T03:51:12.386Z,41.40
2023-04-23T03:53:45.759Z,42.42
2023-04-23T03:56:31.296Z,37.28
2023-04-23T03:59:18.559Z,42.25
2023-04-23T04:01:50.436Z,44.75
2023-04-23T04:04:18.945Z,47.88
2023-04-23T04:06:46.385Z,49.83
2023-04-23T04:09:13.381Z,50.10
2023-04-23T04:11:41.229Z,45.60
2023-04-23T04:14:09.351Z,39.97
2023-04-23T04:16:36.342Z,38.15
2023-04-23T04:19:03.681Z,38.05
2023-04-23T04:21:32.310Z,38.03
2023-04-23T04:24:01.773Z,34.72
2023-04-23T04:26:29.807Z,32.85
2023-04-23T04:28:58.523Z,30.95
2023-04-23T04:31:28.334Z,34.00
2023-04-23T04:33:55.843Z,40.00
2023-04-23T04:36:25.406Z,55.92
2023-04-23T04:38:53.992Z,74.72
2023-04-23T04:41:21.853Z,78.32
2023-04-23T04:43:49.135Z,67.07
2023-04-23T04:46:16.213Z,64.22
2023-04-23T04:48:43.296Z,76.88
2023-04-23T04:51:10.414Z,78.45
2023-04-23T04:53:37.412Z,81.32
2023-04-23T04:56:04.602Z,84.82
2023-04-23T04:58:31.962Z,86.47
2023-04-23T05:00:59.744Z,86.13
2023-04-23T05:03:27.311Z,88.28
2023-04-23T05:05:58.904Z,88.65
2023-04-23T05:08:26.050Z,89.80
2023-04-23T05:10:54.453Z,81.82
2023-04-23T05:13:22.052Z,77.55
2023-04-23T05:15:49.095Z,74.25
2023-04-23T05:18:16.130Z,71.45
2023-04-23T05:20:43.347Z,72.80
2023-04-23T05:23:10.336Z,72.20
2023-04-23T05:25:37.335Z,75.13
2023-04-23T05:28:04.455Z,71.60
2023-04-23T05:30:31.671Z,68.03
2023-04-23T05:32:58.709Z,67.93
2023-04-23T05:35:25.874Z,65.47
2023-04-23T05:37:52.905Z,61.63
2023-04-23T05:40:19.898Z,59.83
2023-04-23T05:42:47.037Z,60.88
2023-04-23T05:45:14.107Z,60.47
2023-04-23T05:47:41.064Z,54.65
2023-04-23T05:50:08.472Z,54.58
2023-04-23T05:52:37.626Z,45.22
2023-04-23T05:55:05.235Z,49.42
2023-04-23T05:57:32.252Z,46.50
2023-04-23T05:59:59.308Z,49.60
2023-04-23T06:02:26.593Z,51.25
2023-04-23T06:04:53.852Z,49.70
2023-04-23T06:07:21.140Z,52.30
2023-04-23T06:09:48.152Z,54.20
2023-04-23T06:12:15.080Z,54.65
2023-04-23T06:14:42.524Z,45.90
2023-04-23T06:17:09.903Z,44.42
2023-04-23T06:19:37.019Z,40.72
2023-04-23T06:22:04.124Z,40.33
2023-04-23T06:24:31.469Z,41.05
2023-04-23T06:26:58.780Z,34.47
2023-04-23T06:29:27.106Z,32.63
2023-04-23T06:32:02.698Z,28.73
2023-04-23T06:34:29.675Z,28.30
2023-04-23T06:36:56.821Z,25.10
2023-04-23T06:39:24.052Z,21.80
2023-04-23T06:41:51.065Z,23.48
2023-04-23T06:44:22.785Z,20.38
2023-04-23T06:46:52.673Z,18.23
2023-04-23T06:49:19.704Z,18.35
2023-04-23T06:51:46.740Z,16.23
2023-04-23T06:54:13.711Z,14.65
2023-04-23T06:56:40.669Z,14.73
2023-04-23T06:59:07.958Z,14.02
2023-04-23T07:01:42.953Z,13.43
2023-04-23T07:04:09.968Z,9.88
2023-04-23T07:06:37.108Z,10.30
2023-04-23T07:09:04.676Z,10.55
2023-04-23T07:11:34.997Z,7.57
2023-04-23T07:14:02.208Z,8.82
2023-04-23T07:16:33.614Z,9.30
2023-04-23T07:19:04.028Z,9.75
2023-04-23T07:21:31.284Z,9.80
2023-04-23T07:24:07.002Z,8.70
2023-04-23T07:26:35.531Z,8.07
2023-04-23T07:29:04.735Z,8.00
2023-04-23T07:31:31.777Z,8.52
2023-04-23T07:33:58.889Z,8.18
2023-04-23T07:36:26.530Z,5.10
2023-04-23T07:38:53.716Z,5.93
2023-04-23T07:41:20.722Z,6.45
2023-04-23T07:43:47.907Z,4.55
2023-04-23T07:46:15.160Z,6.03
2023-04-23T07:48:43.734Z,6.75
2023-04-23T07:51:10.782Z,5.07
2023-04-23T07:53:37.793Z,5.50
2023-04-23T07:56:04.849Z,5.50
2023-04-23T07:58:33.430Z,4.82
2023-04-23T08:01:00.684Z,4.88
2023-04-23T08:03:29.334Z,4.20
2023-04-23T08:05:56.985Z,4.60
2023-04-23T08:08:24.066Z,4.38
2023-04-23T08:10:51.148Z,3.50
2023-04-23T08:13:18.283Z,4.40
2023-04-23T08:15:45.599Z,4.13
2023-04-23T08:18:12.711Z,3.45
2023-04-23T08:20:39.665Z,3.13
2023-04-23T08:23:07.309Z,3.40
2023-04-23T08:25:34.850Z,3.03
2023-04-23T08:28:02.447Z,3.50
2023-04-23T08:30:29.497Z,2.70
2023-04-23T08:32:57.480Z,3.92
2023-04-23T08:35:24.940Z,4.00
2023-04-23T08:37:51.924Z,2.45
2023-04-23T08:40:19.111Z,3.70
2023-04-23T08:42:59.026Z,3.03
2023-04-23T08:45:28.986Z,2.90
2023-04-23T08:48:01.992Z,2.38
2023-04-23T08:50:31.200Z,3.30
2023-04-23T08:52:58.595Z,2.63
2023-04-23T08:55:26.280Z,3.00
2023-04-23T08:57:53.380Z,2.65
2023-04-23T09:00:23.379Z,2.70
2023-04-23T09:02:51.005Z,2.88
2023-04-23T09:05:18.690Z,2.80
2023-04-23T09:07:45.996Z,2.55
2023-04-23T09:10:16.094Z,2.40
2023-04-23T09:12:45.333Z,2.53
2023-04-23T09:15:13.539Z,2.83
2023-04-23T09:17:45.332Z,2.67
2023-04-23T09:20:13.884Z,2.50
2023-04-23T09:22:48.132Z,3.58
2023-04-23T09:25:20.392Z,3.42
2023-04-23T09:27:50.891Z,4.57
2023-04-23T09:30:19.440Z,2.70
2023-04-23T09:32:47.595Z,3.25
2023-04-23T09:35:17.029Z,2.88
2023-04-23T09:37:49.593Z,3.47
2023-04-23T09:40:20.931Z,2.92
2023-04-23T09:42:56.081Z,2.40
2023-04-23T09:45:26.777Z,2.28
2023-04-23T09:47:56.678Z,3.08
2023-04-23T09:50:37.018Z,2.90
2023-04-23T09:53:07.306Z,2.58
2023-04-23T09:55:38.874Z,2.40
2023-04-23T09:58:15.244Z,2.88
2023-04-23T10:00:42.734Z,2.45
2023-04-23T10:03:11.202Z,2.63
2023-04-23T10:08:14.788Z,2.75
2023-04-23T10:13:12.642Z,2.50
2023-04-23T10:15:39.920Z,2.35
2023-04-23T10:18:08.184Z,2.10
2023-04-23T10:20:37.855Z,2.13
2023-04-23T10:23:06.109Z,2.60
2023-04-23T10:25:33.909Z,2.80
2023-04-23T10:28:02.936Z,2.65
2023-04-23T10:30:30.877Z,2.92
2023-04-23T10:33:01.793Z,2.78
2023-04-23T10:35:29.343Z,3.50
2023-04-23T10:37:56.715Z,3.17
2023-04-23T10:40:32.484Z,4.68
2023-04-23T10:43:00.907Z,3.72
2023-04-23T10:45:32.327Z,3.88
2023-04-23T10:47:59.692Z,3.75
2023-04-23T10:50:28.762Z,3.97
2023-04-23T10:52:58.030Z,3.53
2023-04-23T10:55:28.443Z,3.75
2023-04-23T10:58:02.220Z,3.35
2023-04-23T11:00:52.329Z,3.50
2023-04-23T11:03:43.223Z,2.70
2023-04-23T11:06:19.330Z,2.63
2023-04-23T11:11:38.963Z,3.38
2023-04-23T11:14:14.495Z,3.28
2023-04-23T11:16:41.790Z,2.85
2023-04-23T11:19:12.682Z,2.83
2023-04-23T11:22:01.737Z,2.80
2023-04-23T11:24:34.131Z,2.28
2023-04-23T11:27:01.490Z,3.22
2023-04-23T11:29:29.322Z,2.45
2023-04-23T11:34:27.435Z,2.30
2023-04-23T11:36:55.314Z,2.35
2023-04-23T11:39:24.368Z,3.00
2023-04-23T11:41:52.831Z,3.05
2023-04-23T11:44:23.294Z,2.80
2023-04-23T11:46:50.738Z,2.20
2023-04-23T11:49:19.594Z,2.25
2023-04-23T11:51:47.151Z,3.05
2023-04-23T11:54:14.968Z,3.00
2023-04-23T11:56:42.599Z,2.92
2023-04-23T11:59:09.870Z,3.30
2023-04-23T12:01:57.004Z,2.20
2023-04-23T12:04:30.239Z,2.53
2023-04-23T12:06:58.434Z,2.38
2023-04-23T12:09:28.458Z,2.55
2023-04-23T12:11:58.498Z,2.25
2023-04-23T12:14:31.215Z,2.88
2023-04-23T12:17:08.888Z,2.63
2023-04-23T12:19:36.636Z,2.78
2023-04-23T12:22:04.612Z,2.85
2023-04-23T12:24:46.674Z,3.08
2023-04-23T12:27:20.489Z,2.40
2023-04-23T12:29:51.437Z,2.47
2023-04-23T12:32:23.062Z,3.35
2023-04-23T12:34:55.482Z,3.10
2023-04-23T12:37:27.133Z,3.15
2023-04-23T12:39:56.804Z,3.28
2023-04-23T12:42:24.485Z,2.88
2023-04-23T12:44:52.181Z,2.58
2023-04-23T12:47:22.182Z,2.75
2023-04-23T12:49:53.782Z,2.55
2023-04-23T12:52:21.256Z,2.80
2023-04-23T12:54:52.328Z,2.58
2023-04-23T12:57:23.501Z,2.75
2023-04-23T12:59:50.887Z,2.35
2023-04-23T13:02:18.174Z,3.40
2023-04-23T13:04:45.278Z,3.58
2023-04-23T13:07:12.409Z,3.88
2023-04-23T13:09:39.533Z,2.47
2023-04-23T13:12:06.609Z,3.13
2023-04-23T13:14:33.767Z,2.95
2023-04-23T13:17:01.122Z,3.33
2023-04-23T13:19:28.346Z,2.65
2023-04-23T13:21:55.498Z,2.90
2023-04-23T13:24:22.539Z,3.40
2023-04-23T13:26:49.630Z,2.90
2023-04-23T13:29:16.582Z,3.97
2023-04-23T13:31:43.815Z,3.05
2023-04-23T13:34:11.002Z,3.72
2023-04-23T13:36:41.524Z,2.63
2023-04-23T13:39:10.192Z,2.30
2023-04-23T13:41:38.103Z,3.65
2023-04-23T13:44:05.186Z,2.78
2023-04-23T13:46:32.718Z,2.92
2023-04-23T13:49:01.231Z,4.13
2023-04-23T13:51:35.276Z,3.00
2023-04-23T13:54:03.753Z,3.38
2023-04-23T13:56:31.880Z,2.92
2023-04-23T14:01:35.332Z,2.85
2023-04-23T14:04:04.479Z,2.78
2023-04-23T14:06:32.090Z,2.88
2023-04-23T14:08:59.106Z,3.00
2023-04-23T14:11:26.152Z,2.92
2023-04-23T14:13:54.323Z,3.28
2023-04-23T14:16:21.390Z,2.88
2023-04-23T14:18:48.420Z,3.00
2023-04-23T14:21:16.429Z,3.08
2023-04-23T14:23:57.409Z,3.28
2023-04-23T14:29:34.912Z,2.85
2023-04-23T14:32:02.213Z,4.20
2023-04-23T14:34:29.539Z,3.47
2023-04-23T14:36:56.647Z,3.10
2023-04-23T14:39:24.547Z,2.90
2023-04-23T14:41:51.630Z,3.20
2023-04-23T14:44:18.808Z,3.72
2023-04-23T14:46:45.990Z,3.05
2023-04-23T14:49:12.967Z,3.25
2023-04-23T14:51:39.980Z,2.97
2023-04-23T14:54:07.362Z,2.78
2023-04-23T14:56:34.436Z,2.90
2023-04-23T14:59:02.326Z,3.08
2023-04-23T15:01:32.219Z,2.63
2023-04-23T15:03:59.643Z,3.40
2023-04-23T15:06:26.818Z,3.10
2023-04-23T15:08:53.826Z,3.05
2023-04-23T15:11:21.063Z,3.97
2023-04-23T15:14:03.907Z,2.65
2023-04-23T15:19:10.212Z,3.75
2023-04-23T15:21:37.631Z,2.90
2023-04-23T15:24:04.858Z,3.72
2023-04-23T15:26:33.851Z,2.97
2023-04-23T15:29:01.028Z,3.13
2023-04-23T15:31:28.060Z,3.08
2023-04-23T15:33:55.152Z,3.30
2023-04-23T15:36:22.232Z,2.90
2023-04-23T15:38:49.228Z,3.08
2023-04-23T15:41:16.283Z,2.90
2023-04-23T15:43:43.315Z,3.35
2023-04-23T15:46:10.746Z,3.50
2023-04-23T15:48:37.771Z,3.03
2023-04-23T15:51:04.975Z,3.55
2023-04-23T15:53:32.050Z,3.25
2023-04-23T15:55:59.079Z,2.85
2023-04-23T15:58:26.261Z,3.03
2023-04-23T16:00:53.440Z,3.28
2023-04-23T16:03:21.471Z,2.88
2023-04-23T16:05:51.081Z,2.92
2023-04-23T16:08:18.133Z,4.32
2023-04-23T16:10:45.200Z,3.58
2023-04-23T16:13:12.224Z,2.72
2023-04-23T16:15:39.209Z,3.30
2023-04-23T16:18:06.707Z,3.88
2023-04-23T16:20:33.967Z,3.10
2023-04-23T16:23:02.055Z,3.78
2023-04-23T16:25:29.087Z,3.28
2023-04-23T16:27:56.338Z,3.63
2023-04-23T16:30:23.953Z,3.40
2023-04-23T16:32:51.263Z,4.07
2023-04-23T16:35:18.386Z,4.13
2023-04-23T16:37:45.788Z,4.35
2023-04-23T16:40:15.328Z,4.10
2023-04-23T16:42:43.479Z,5.55
2023-04-23T16:45:11.133Z,3.72
2023-04-23T16:47:38.583Z,3.35
2023-04-23T16:50:06.338Z,4.10
2023-04-23T16:52:33.377Z,4.22
2023-04-23T16:55:00.481Z,4.50
2023-04-23T16:57:28.218Z,4.90
2023-04-23T16:59:55.213Z,4.85
2023-04-23T17:02:22.237Z,5.13
2023-04-23T17:04:49.631Z,5.32
2023-04-23T17:07:17.246Z,4.55
2023-04-23T17:09:44.361Z,4.50
2023-04-23T17:12:11.453Z,4.47
2023-04-23T17:14:38.602Z,4.18
2023-04-23T17:17:05.619Z,4.57
2023-04-23T17:19:33.131Z,5.45
2023-04-23T17:22:01.150Z,5.32
2023-04-23T17:24:28.146Z,5.57
2023-04-23T17:26:55.124Z,6.03
2023-04-23T17:29:22.110Z,5.65
2023-04-23T17:31:49.347Z,5.68
2023-04-23T17:34:16.491Z,4.78
2023-04-23T17:36:43.531Z,5.35
2023-04-23T17:39:10.520Z,5.47
2023-04-23T17:41:38.265Z,5.45
2023-04-23T17:44:05.325Z,5.72
2023-04-23T17:46:32.616Z,5.18
2023-04-23T17:49:00.249Z,4.93
2023-04-23T17:51:27.530Z,5.05
2023-04-23T17:53:54.920Z,4.93
2023-04-23T17:56:22.288Z,7.60
2023-04-23T17:58:49.365Z,4.78
2023-04-23T18:01:17.827Z,4.93
2023-04-23T18:03:45.150Z,5.10
2023-04-23T18:06:13.056Z,4.57
2023-04-23T18:08:42.511Z,4.47
2023-04-23T18:11:09.760Z,4.85
2023-04-23T18:13:36.894Z,5.72
2023-04-23T18:16:04.092Z,5.43
2023-04-23T18:18:31.092Z,5.90
2023-04-23T18:20:58.407Z,6.10
2023-04-23T18:23:26.324Z,7.10
2023-04-23T18:25:53.655Z,6.05
2023-04-23T18:28:21.526Z,5.72
2023-04-23T18:30:48.784Z,5.72
2023-04-23T18:33:16.713Z,6.18
2023-04-23T18:35:47.259Z,7.65
2023-04-23T18:38:39.169Z,6.22
2023-04-23T18:41:06.363Z,6.07
2023-04-23T18:43:34.315Z,6.93
2023-04-23T18:46:02.245Z,7.43
2023-04-23T18:48:35.653Z,6.25
2023-04-23T18:51:27.565Z,6.47
2023-04-23T18:53:54.712Z,7.05
2023-04-23T18:56:22.002Z,7.28
2023-04-23T18:58:48.936Z,7.35
2023-04-23T19:01:16.696Z,6.28
2023-04-23T19:03:43.877Z,6.50
2023-04-23T19:06:11.003Z,6.72
2023-04-23T19:08:38.355Z,6.32
2023-04-23T19:11:05.419Z,7.07
2023-04-23T19:13:32.464Z,6.22
2023-04-23T19:16:00.024Z,6.03
2023-04-23T19:18:27.791Z,6.13
2023-04-23T19:20:54.943Z,6.45
2023-04-23T19:23:22.347Z,6.10
2023-04-23T19:25:49.360Z,7.88
2023-04-23T19:28:16.403Z,7.20
2023-04-23T19:30:43.448Z,6.82
2023-04-23T19:33:10.700Z,5.75
2023-04-23T19:35:40.101Z,5.30
2023-04-23T19:38:07.728Z,5.88
2023-04-23T19:40:35.170Z,5.57
2023-04-23T19:43:02.388Z,5.63
2023-04-23T19:45:30.204Z,6.00
2023-04-23T19:47:57.629Z,5.10
2023-04-23T19:50:26.503Z,5.55
2023-04-23T19:52:53.576Z,5.30
2023-04-23T19:55:22.608Z,5.07
2023-04-23T19:57:49.616Z,4.32
2023-04-23T20:00:17.156Z,4.53
2023-04-23T20:02:44.349Z,4.85
2023-04-23T20:05:11.565Z,4.40
2023-04-23T20:07:39.317Z,5.03
2023-04-23T20:10:07.118Z,4.60
2023-04-23T20:12:34.930Z,5.65
2023-04-23T20:15:02.361Z,4.68
2023-04-23T20:17:33.010Z,4.85
2023-04-23T20:20:02.062Z,4.40
2023-04-23T20:22:30.006Z,4.20
2023-04-23T20:24:58.100Z,4.53
2023-04-23T20:27:28.719Z,4.82
2023-04-23T20:29:55.899Z,5.50
2023-04-23T20:32:22.938Z,5.70
2023-04-23T20:34:49.994Z,5.22
2023-04-23T20:37:21.641Z,4.95
2023-04-23T20:39:49.990Z,4.72
2023-04-23T20:42:17.176Z,5.57
2023-04-23T20:44:47.075Z,5.78
2023-04-23T20:47:16.483Z,5.80
2023-04-23T20:49:43.832Z,5.85
2023-04-23T20:52:12.508Z,5.57
2023-04-23T20:54:39.544Z,5.47
2023-04-23T20:57:07.074Z,5.50
2023-04-23T20:59:34.490Z,5.88
2023-04-23T21:02:01.571Z,5.05
2023-04-23T21:04:28.769Z,5.43
2023-04-23T21:06:56.338Z,4.80
2023-04-23T21:09:23.690Z,5.05
2023-04-23T21:11:51.248Z,5.00
2023-04-23T21:14:18.413Z,4.47
2023-04-23T21:16:45.420Z,6.05
2023-04-23T21:19:12.435Z,5.18
2023-04-23T21:21:39.465Z,4.97
2023-04-23T21:24:06.674Z,5.40
2023-04-23T21:26:33.800Z,4.72
2023-04-23T21:29:00.836Z,5.03
2023-04-23T21:31:38.871Z,5.38
2023-04-23T21:34:05.969Z,6.82
2023-04-23T21:36:33.011Z,5.82
2023-04-23T21:39:00.100Z,5.43
2023-04-23T21:41:27.149Z,5.10
2023-04-23T21:43:54.222Z,5.68
2023-04-23T21:46:23.805Z,5.53
2023-04-23T21:48:53.778Z,5.45
2023-04-23T21:51:22.482Z,6.13
2023-04-23T21:53:49.541Z,5.20
2023-04-23T21:56:17.467Z,5.43
2023-04-23T21:58:44.947Z,4.72
2023-04-23T22:01:12.096Z,5.45
2023-04-23T22:03:42.822Z,4.70
2023-04-23T22:06:09.971Z,4.57
2023-04-23T22:08:40.561Z,5.13
2023-04-23T22:11:08.474Z,5.05
2023-04-23T22:13:36.209Z,4.45
2023-04-23T22:16:06.587Z,4.70
2023-04-23T22:18:38.381Z,5.88
2023-04-23T22:21:05.452Z,5.40
2023-04-23T22:23:32.564Z,5.63
2023-04-23T22:25:59.540Z,5.03
2023-04-23T22:28:26.581Z,5.78
2023-04-23T22:30:53.819Z,6.25
2023-04-23T22:33:21.187Z,6.78
2023-04-23T22:35:48.236Z,7.13
2023-04-23T22:38:15.847Z,7.15
2023-04-23T22:40:43.069Z,7.35
2023-04-23T22:43:10.124Z,7.05
2023-04-23T22:45:37.182Z,6.22
2023-04-23T22:48:04.400Z,5.80
2023-04-23T22:50:31.437Z,7.43
2023-04-23T22:52:58.430Z,8.38
2023-04-23T22:55:25.659Z,7.45
2023-04-23T22:57:52.695Z,6.78
2023-04-23T23:00:19.818Z,7.18
2023-04-23T23:02:47.038Z,5.57
2023-04-23T23:05:14.274Z,6.32
2023-04-23T23:07:41.370Z,6.07
2023-04-23T23:10:08.964Z,6.22
2023-04-23T23:12:37.009Z,6.07
2023-04-23T23:15:04.292Z,7.82
2023-04-23T23:17:31.423Z,7.32
2023-04-23T23:19:58.533Z,8.70
2023-04-23T23:22:27.154Z,10.23
2023-04-23T23:24:54.921Z,10.23
2023-04-23T23:27:21.944Z,9.13
2023-04-23T23:29:48.888Z,10.52
2023-04-23T23:32:16.198Z,12.60
2023-04-23T23:34:43.269Z,9.93
2023-04-23T23:37:11.206Z,10.48
2023-04-23T23:39:38.370Z,8.98
2023-04-23T23:42:05.388Z,9.00
2023-04-23T23:44:32.911Z,8.75
2023-04-23T23:47:00.481Z,8.32
2023-04-23T23:49:27.622Z,9.02
2023-04-23T23:51:54.783Z,7.90
2023-04-23T23:54:21.818Z,9.57
2023-04-23T23:56:48.786Z,9.90
2023-04-23T23:59:15.814Z,9.27
